Current Weather

Mineral Wells Rgnl

Mineral Wells, Texas (KMWL)

Report from: Sunday, February 25, 2024 2:53 PM CST
Current time: Sunday, February 25, 2024 4:04 PM CST

Nearby weather – Weather history – Daily summaries
Weather forecast

Temperature30.6°C (87.1°F)
Heat index28.6°C (83.5°F)
Dew point1.1°C (34.0°F)
Winds 12 kts (6.2 m/s, 13.8 mph) West-Southwest (250°)
Wind gusts 25 kts (12.9 m/s, 28.8 mph)
Visibility10 mi. (16.1 km)
Clouds Sky clear
Altimeter29.82 in.Hg (1010 mB)
Relative humidity15 %
Density altitude2,042 ft. (623 m)
Sea-level pressure100.9 kPa (1009 mB, 29.79 in.Hg)
Remarks Fully automated report
Automated weather observing station with precipitation discriminator
Pressure falling more slowly
Flight conditions Visual Meteorological Conditions
Raw dataKMWL 252053Z AUTO 25012G25KT 10SM CLR 31/01 A2982 RMK AO2 SLP087 T03060011 56028
An error has occurred. This application may no longer respond until reloaded. Reload 🗙